createdAt,value
2022-12-13T00:01:46.364Z,9.97
2022-12-13T00:04:15.645Z,9.60
2022-12-13T00:06:43.976Z,8.67
2022-12-13T00:09:13.906Z,7.40
2022-12-13T00:11:41.611Z,7.73
2022-12-13T00:14:10.407Z,9.23
2022-12-13T00:16:39.454Z,9.73
2022-12-13T00:19:08.080Z,8.03
2022-12-13T00:21:35.775Z,8.23
2022-12-13T00:24:08.578Z,8.83
2022-12-13T00:26:36.349Z,8.27
2022-12-13T00:29:07.405Z,7.83
2022-12-13T00:31:59.506Z,7.83
2022-12-13T00:34:26.149Z,8.97
2022-12-13T00:36:54.795Z,9.00
2022-12-13T00:39:23.079Z,8.83
2022-12-13T00:41:51.049Z,7.90
2022-12-13T00:44:20.414Z,7.43
2022-12-13T00:46:48.069Z,8.23
2022-12-13T00:49:15.759Z,8.70
2022-12-13T00:51:44.900Z,7.80
2022-12-13T00:54:12.826Z,6.93
2022-12-13T00:56:40.462Z,6.30
2022-12-13T00:59:09.018Z,8.10
2022-12-13T01:01:37.761Z,7.67
2022-12-13T01:04:08.358Z,8.03
2022-12-13T01:06:39.599Z,7.20
2022-12-13T01:09:15.370Z,6.73
2022-12-13T01:11:43.086Z,8.40
2022-12-13T01:14:11.163Z,8.17
2022-12-13T01:16:39.598Z,6.60
2022-12-13T01:19:07.994Z,8.07
2022-12-13T01:21:35.693Z,10.23
2022-12-13T01:24:05.498Z,8.13
2022-12-13T01:26:35.204Z,9.10
2022-12-13T01:29:05.564Z,8.33
2022-12-13T01:31:33.486Z,9.33
2022-12-13T01:34:10.593Z,9.47
2022-12-13T01:36:39.042Z,8.43
2022-12-13T01:39:07.820Z,9.23
2022-12-13T01:41:46.938Z,8.40
2022-12-13T01:44:53.165Z,9.77
2022-12-13T01:47:25.814Z,9.27
2022-12-13T01:49:57.594Z,9.33
2022-12-13T01:52:29.442Z,8.43
2022-12-13T01:55:15.470Z,11.23
2022-12-13T01:57:48.716Z,9.70
2022-12-13T02:00:17.825Z,6.80
2022-12-13T02:02:46.814Z,7.07
2022-12-13T02:05:19.827Z,8.60
2022-12-13T02:07:48.696Z,10.97
2022-12-13T02:10:16.795Z,7.97
2022-12-13T02:12:45.929Z,10.03
2022-12-13T02:15:17.118Z,10.50
2022-12-13T02:18:07.982Z,8.67
2022-12-13T02:20:51.286Z,8.53
2022-12-13T02:23:38.595Z,8.60
2022-12-13T02:26:34.599Z,7.83
2022-12-13T02:29:30.760Z,10.57
2022-12-13T02:32:05.191Z,8.97
2022-12-13T02:34:39.791Z,9.83
2022-12-13T02:37:17.917Z,7.93
2022-12-13T02:39:52.570Z,8.40
2022-12-13T02:42:25.319Z,9.93
2022-12-13T02:44:58.592Z,8.80
2022-12-13T02:47:29.831Z,9.57
2022-12-13T02:50:03.243Z,7.67
2022-12-13T02:52:32.856Z,7.80
2022-12-13T02:55:01.362Z,9.80
2022-12-13T02:57:34.727Z,9.50
2022-12-13T03:00:06.283Z,7.20
2022-12-13T03:02:47.069Z,7.60
2022-12-13T03:05:44.294Z,7.67
2022-12-13T03:08:21.754Z,7.47
2022-12-13T03:10:58.076Z,8.33
2022-12-13T03:13:39.099Z,9.23
2022-12-13T03:16:19.461Z,8.17
2022-12-13T03:18:54.236Z,7.53
2022-12-13T03:21:23.277Z,9.23
2022-12-13T03:23:50.929Z,8.30
2022-12-13T03:26:22.908Z,8.47
2022-12-13T03:28:51.545Z,8.50
2022-12-13T03:31:20.722Z,8.93
2022-12-13T03:33:48.431Z,10.23
2022-12-13T03:36:20.060Z,8.57
2022-12-13T03:38:52.253Z,8.53
2022-12-13T03:41:23.692Z,9.43
2022-12-13T03:43:51.676Z,9.47
2022-12-13T03:46:19.703Z,10.47
2022-12-13T03:48:47.770Z,9.23
2022-12-13T03:51:17.761Z,7.43
2022-12-13T03:53:45.499Z,8.10
2022-12-13T03:56:13.734Z,7.97
2022-12-13T03:58:43.147Z,9.53
2022-12-13T04:01:13.662Z,7.27
2022-12-13T04:03:42.788Z,6.70
2022-12-13T04:06:11.619Z,9.83
2022-12-13T04:08:41.465Z,9.60
2022-12-13T04:11:27.665Z,9.17
2022-12-13T04:13:56.112Z,7.97
2022-12-13T04:16:25.550Z,9.90
2022-12-13T04:18:53.565Z,7.87
2022-12-13T04:21:21.548Z,7.47
2022-12-13T04:23:50.597Z,9.23
2022-12-13T04:26:18.268Z,8.33
2022-12-13T04:28:50.906Z,8.90
2022-12-13T04:31:22.619Z,8.17
2022-12-13T04:33:50.361Z,10.63
2022-12-13T04:36:32.309Z,9.97
2022-12-13T04:39:02.624Z,9.13
2022-12-13T04:41:34.367Z,10.23
2022-12-13T04:44:03.233Z,8.90
2022-12-13T04:46:31.499Z,8.13
2022-12-13T04:48:59.172Z,8.63
2022-12-13T04:51:27.240Z,10.00
2022-12-13T04:53:55.026Z,10.70
2022-12-13T04:56:24.495Z,11.93
2022-12-13T04:58:52.300Z,11.83
2022-12-13T05:01:20.306Z,11.80
2022-12-13T05:03:48.570Z,10.33
2022-12-13T05:06:27.041Z,10.10
2022-12-13T05:09:00.878Z,10.93
2022-12-13T05:11:35.611Z,11.37
2022-12-13T05:14:04.430Z,9.37
2022-12-13T05:16:32.131Z,11.37
2022-12-13T05:19:00.916Z,9.77
2022-12-13T05:21:29.751Z,10.97
2022-12-13T05:23:57.751Z,9.70
2022-12-13T05:26:25.383Z,10.93
2022-12-13T05:28:57.024Z,12.13
2022-12-13T05:31:25.143Z,11.23
2022-12-13T05:33:53.937Z,9.60
2022-12-13T05:36:25.225Z,8.27
2022-12-13T05:38:54.414Z,10.70
2022-12-13T05:41:25.264Z,10.33
2022-12-13T05:43:54.967Z,11.27
2022-12-13T05:46:22.615Z,7.97
2022-12-13T05:48:51.083Z,9.67
2022-12-13T05:51:18.782Z,11.20
2022-12-13T05:53:51.563Z,9.30
2022-12-13T05:56:22.378Z,9.60
2022-12-13T05:58:53.627Z,9.17
2022-12-13T06:01:24.259Z,8.73
2022-12-13T06:03:52.540Z,9.23
2022-12-13T06:06:21.149Z,8.93
2022-12-13T06:08:49.013Z,9.53
2022-12-13T06:11:21.586Z,9.63
2022-12-13T06:14:01.457Z,9.20
2022-12-13T06:16:31.200Z,9.23
2022-12-13T06:19:04.118Z,9.10
2022-12-13T06:21:43.805Z,9.37
2022-12-13T06:24:17.488Z,9.60
2022-12-13T06:26:46.164Z,11.77
2022-12-13T06:29:23.475Z,12.50
2022-12-13T06:32:02.342Z,14.07
2022-12-13T06:34:32.379Z,15.20
2022-12-13T06:37:01.235Z,10.88
2022-12-13T06:39:32.808Z,10.77
2022-12-13T06:42:02.506Z,9.80
2022-12-13T06:44:30.622Z,9.87
2022-12-13T06:47:10.694Z,9.52
2022-12-13T06:49:43.230Z,9.27
2022-12-13T06:52:12.993Z,9.60
2022-12-13T06:54:41.438Z,11.03
2022-12-13T06:57:09.333Z,10.17
2022-12-13T06:59:37.511Z,12.00
2022-12-13T07:02:24.832Z,10.75
2022-12-13T07:04:56.501Z,10.63
2022-12-13T07:07:25.565Z,10.38
2022-12-13T07:09:54.571Z,12.57
2022-12-13T07:12:22.641Z,10.73
2022-12-13T07:14:50.684Z,11.03
2022-12-13T07:17:31.870Z,11.90
2022-12-13T07:20:03.866Z,16.80
2022-12-13T07:22:35.271Z,25.10
2022-12-13T07:25:06.114Z,18.33
2022-12-13T07:27:34.356Z,16.03
2022-12-13T07:30:02.978Z,12.15
2022-12-13T07:32:32.015Z,9.27
2022-12-13T07:35:00.304Z,9.27
2022-12-13T07:37:30.410Z,10.07
2022-12-13T07:40:03.837Z,8.90
2022-12-13T07:42:31.905Z,9.17
2022-12-13T07:45:00.225Z,13.23
2022-12-13T07:47:30.535Z,11.80
2022-12-13T07:50:01.685Z,11.33
2022-12-13T07:52:29.565Z,12.87
2022-12-13T07:54:57.217Z,11.20
2022-12-13T07:57:24.873Z,11.10
2022-12-13T07:59:53.403Z,11.43
2022-12-13T08:02:21.006Z,11.40
2022-12-13T08:04:54.633Z,14.57
2022-12-13T08:07:24.352Z,12.17
2022-12-13T08:09:53.277Z,11.93
2022-12-13T08:12:22.684Z,12.03
2022-12-13T08:14:53.172Z,12.00
2022-12-13T08:17:21.540Z,11.17
2022-12-13T08:19:49.178Z,9.67
2022-12-13T08:22:23.740Z,9.87
2022-12-13T08:24:54.143Z,11.83
2022-12-13T08:27:21.908Z,11.47
2022-12-13T08:29:50.312Z,11.53
2022-12-13T08:32:18.270Z,9.03
2022-12-13T08:34:46.924Z,11.93
2022-12-13T08:37:14.623Z,11.03
2022-12-13T08:39:42.838Z,10.40
2022-12-13T08:42:18.276Z,10.57
2022-12-13T08:44:48.977Z,10.50
2022-12-13T08:47:23.006Z,10.43
2022-12-13T08:49:54.283Z,11.10
2022-12-13T08:52:23.345Z,11.83
2022-12-13T08:54:52.149Z,10.50
2022-12-13T08:57:21.468Z,10.90
2022-12-13T08:59:49.461Z,11.30
2022-12-13T09:02:17.528Z,10.13
2022-12-13T09:04:45.460Z,10.83
2022-12-13T09:07:13.864Z,12.67
2022-12-13T09:09:41.567Z,10.40
2022-12-13T09:12:10.949Z,10.93
2022-12-13T09:15:00.929Z,11.53
2022-12-13T09:17:36.742Z,9.93
2022-12-13T09:20:10.144Z,14.40
2022-12-13T09:23:01.326Z,11.90
2022-12-13T09:25:37.084Z,8.87
2022-12-13T09:28:07.904Z,10.10
2022-12-13T09:30:37.508Z,10.80
2022-12-13T09:33:28.186Z,10.13
2022-12-13T09:35:53.834Z,8.13
2022-12-13T09:38:21.606Z,11.00
2022-12-13T09:40:58.387Z,9.00
2022-12-13T09:43:32.444Z,8.17
2022-12-13T09:46:13.207Z,9.57
2022-12-13T09:49:01.806Z,10.27
2022-12-13T09:51:39.630Z,9.23
2022-12-13T09:54:19.526Z,8.00
2022-12-13T09:56:51.056Z,8.47
2022-12-13T09:59:22.492Z,8.70
2022-12-13T10:01:52.044Z,8.17
2022-12-13T10:04:20.038Z,9.60
2022-12-13T10:06:48.128Z,8.20
2022-12-13T10:09:15.967Z,10.47
2022-12-13T10:11:51.722Z,9.20
2022-12-13T10:14:26.389Z,9.33
2022-12-13T10:16:59.226Z,7.97
2022-12-13T10:19:34.365Z,7.47
2022-12-13T10:22:04.803Z,8.60
2022-12-13T10:24:50.096Z,9.03
2022-12-13T10:27:19.547Z,8.73
2022-12-13T10:30:07.810Z,8.87
2022-12-13T10:32:49.531Z,7.70
2022-12-13T10:35:24.415Z,8.40
2022-12-13T10:37:53.375Z,11.13
2022-12-13T10:40:33.291Z,8.60
2022-12-13T10:43:13.149Z,9.13
2022-12-13T10:45:41.482Z,8.50
2022-12-13T10:48:21.063Z,8.50
2022-12-13T10:50:59.984Z,9.00
2022-12-13T10:53:32.272Z,9.03
2022-12-13T10:56:02.462Z,8.40
2022-12-13T10:58:39.782Z,8.97
2022-12-13T11:01:22.722Z,8.37
2022-12-13T11:04:02.883Z,9.17
2022-12-13T11:06:43.429Z,8.80
2022-12-13T11:09:22.838Z,8.20
2022-12-13T11:11:58.073Z,7.53
2022-12-13T11:14:31.907Z,7.33
2022-12-13T11:17:08.133Z,9.47
2022-12-13T11:19:41.701Z,8.27
2022-12-13T11:22:10.942Z,7.67
2022-12-13T11:24:42.194Z,8.97
2022-12-13T11:27:35.628Z,7.40
2022-12-13T11:30:20.972Z,8.03
2022-12-13T11:33:05.097Z,7.80
2022-12-13T11:35:43.684Z,7.57
2022-12-13T11:38:26.667Z,11.90
2022-12-13T11:40:59.853Z,7.83
2022-12-13T11:43:34.791Z,8.17
2022-12-13T11:46:14.588Z,6.50
2022-12-13T11:48:47.960Z,6.13
2022-12-13T11:51:25.934Z,8.03
2022-12-13T11:54:00.370Z,7.77
2022-12-13T11:56:32.379Z,7.27
2022-12-13T11:59:19.045Z,9.20
2022-12-13T12:01:54.601Z,8.80
2022-12-13T12:04:30.327Z,10.70
2022-12-13T12:07:30.586Z,11.83
2022-12-13T12:09:58.647Z,10.43
2022-12-13T12:12:33.662Z,8.77
2022-12-13T12:15:15.706Z,9.50
2022-12-13T12:17:45.251Z,9.93
2022-12-13T12:20:23.861Z,12.07
2022-12-13T12:23:03.507Z,9.53
2022-12-13T12:25:44.813Z,9.40
2022-12-13T12:28:26.865Z,9.67
2022-12-13T12:31:03.979Z,8.97
2022-12-13T12:33:43.700Z,10.60
2022-12-13T12:36:25.495Z,8.17
2022-12-13T12:39:19.911Z,11.47
2022-12-13T12:42:00.299Z,10.10
2022-12-13T12:44:39.665Z,10.03
2022-12-13T12:50:38.260Z,9.23
2022-12-13T12:53:27.908Z,9.77
2022-12-13T12:56:10.304Z,10.37
2022-12-13T12:58:47.411Z,8.00
2022-12-13T13:01:26.589Z,7.73
2022-12-13T13:04:01.609Z,9.27
2022-12-13T13:06:34.549Z,7.97
2022-12-13T13:09:06.209Z,9.90
2022-12-13T13:11:43.146Z,8.57
2022-12-13T13:14:28.398Z,9.73
2022-12-13T13:16:56.812Z,7.87
2022-12-13T13:19:43.396Z,7.97
2022-12-13T13:22:32.246Z,8.17
2022-12-13T13:25:28.592Z,8.90
2022-12-13T13:28:07.253Z,7.13
2022-12-13T13:30:36.824Z,12.47
2022-12-13T13:33:04.601Z,9.70
2022-12-13T13:35:53.673Z,8.63
2022-12-13T13:38:55.733Z,8.43
2022-12-13T13:42:07.864Z,8.57
2022-12-13T13:45:03.488Z,9.23
2022-12-13T13:47:40.215Z,10.93
2022-12-13T13:50:41.971Z,11.00
2022-12-13T13:53:43.964Z,8.57
2022-12-13T13:56:24.140Z,9.83
2022-12-13T13:59:24.908Z,11.00
2022-12-13T14:02:11.240Z,9.57
2022-12-13T14:05:12.185Z,7.77
2022-12-13T14:08:20.739Z,10.00
2022-12-13T14:11:10.338Z,7.90
2022-12-13T14:14:22.119Z,8.57
2022-12-13T14:17:23.525Z,10.00
2022-12-13T14:20:18.355Z,13.47
2022-12-13T14:22:50.800Z,10.87
2022-12-13T14:25:29.711Z,12.30
2022-12-13T14:28:03.806Z,13.40
2022-12-13T14:30:33.732Z,11.23
2022-12-13T14:33:02.719Z,9.37
2022-12-13T14:35:32.850Z,9.30
2022-12-13T14:38:02.482Z,8.60
2022-12-13T14:40:33.099Z,12.93
2022-12-13T14:43:01.451Z,14.97
2022-12-13T14:45:31.770Z,7.67
2022-12-13T14:48:04.437Z,6.87
2022-12-13T14:50:36.375Z,7.40
2022-12-13T14:53:06.319Z,6.33
2022-12-13T14:55:37.521Z,10.77
2022-12-13T14:58:17.931Z,6.57
2022-12-13T15:00:47.043Z,7.53
2022-12-13T15:03:25.124Z,8.50
2022-12-13T15:05:55.806Z,7.47
2022-12-13T15:08:24.237Z,6.10
2022-12-13T15:10:54.733Z,7.57
2022-12-13T15:13:29.925Z,7.03
2022-12-13T15:16:01.923Z,7.33
2022-12-13T15:18:41.282Z,8.63
2022-12-13T15:21:23.573Z,6.60
2022-12-13T15:23:55.998Z,8.43
2022-12-13T15:26:34.722Z,8.53
2022-12-13T15:29:10.060Z,7.87
2022-12-13T15:31:40.470Z,9.93
2022-12-13T15:34:39.978Z,7.57
2022-12-13T15:37:29.451Z,9.27
2022-12-13T15:40:01.906Z,8.67
2022-12-13T15:42:33.180Z,10.33
2022-12-13T15:45:03.777Z,10.07
2022-12-13T15:47:31.904Z,9.40
2022-12-13T15:50:03.163Z,8.50
2022-12-13T15:52:35.442Z,12.00
2022-12-13T15:55:19.831Z,10.87
2022-12-13T15:57:51.887Z,10.40
2022-12-13T16:00:30.252Z,8.43
2022-12-13T16:03:08.661Z,9.83
2022-12-13T16:05:42.743Z,10.50
2022-12-13T16:08:25.382Z,10.17
2022-12-13T16:10:54.778Z,10.40
2022-12-13T16:13:27.341Z,7.90
2022-12-13T16:16:00.121Z,9.63
2022-12-13T16:18:44.072Z,12.47
2022-12-13T16:21:14.615Z,9.57
2022-12-13T16:23:47.935Z,10.73
2022-12-13T16:26:22.673Z,10.07
2022-12-13T16:28:50.533Z,10.63
2022-12-13T16:31:22.301Z,9.43
2022-12-13T16:33:50.400Z,11.47
2022-12-13T16:36:19.424Z,10.53
2022-12-13T16:38:47.429Z,10.87
2022-12-13T16:41:16.375Z,10.47
2022-12-13T16:43:53.542Z,9.80
2022-12-13T16:47:18.215Z,8.90
2022-12-13T16:49:19.411Z,9.10
2022-12-13T16:51:49.214Z,11.20
2022-12-13T16:54:17.970Z,11.53
2022-12-13T16:56:46.149Z,11.17
2022-12-13T16:59:15.572Z,11.40
2022-12-13T17:01:44.227Z,13.93
2022-12-13T17:04:19.214Z,23.10
2022-12-13T17:06:49.807Z,14.90
2022-12-13T17:09:17.652Z,11.40
2022-12-13T17:11:45.352Z,12.87
2022-12-13T17:14:13.029Z,12.07
2022-12-13T17:16:40.754Z,13.07
2022-12-13T17:19:08.400Z,14.60
2022-12-13T17:21:36.236Z,12.57
2022-12-13T17:24:05.754Z,13.20
2022-12-13T17:26:34.816Z,12.67
2022-12-13T17:29:02.469Z,15.60
2022-12-13T17:31:35.221Z,12.13
2022-12-13T17:34:04.000Z,16.40
2022-12-13T17:36:32.150Z,19.47
2022-12-13T17:39:00.579Z,12.47
2022-12-13T17:41:29.581Z,11.50
2022-12-13T17:44:00.045Z,15.57
2022-12-13T17:46:27.818Z,10.77
2022-12-13T17:48:56.039Z,10.97
2022-12-13T17:51:23.744Z,10.20
2022-12-13T17:53:51.740Z,12.53
2022-12-13T17:56:19.689Z,12.80
2022-12-13T17:58:48.737Z,12.47
2022-12-13T18:01:19.108Z,14.87
2022-12-13T18:03:48.777Z,11.77
2022-12-13T18:06:16.888Z,16.17
2022-12-13T18:08:47.080Z,15.17
2022-12-13T18:11:33.802Z,16.83
2022-12-13T18:14:05.373Z,15.57
2022-12-13T18:16:37.346Z,13.87
2022-12-13T18:19:07.480Z,12.67
2022-12-13T18:21:36.882Z,14.73
2022-12-13T18:24:05.813Z,12.27
2022-12-13T18:26:34.186Z,14.53
2022-12-13T18:29:02.157Z,14.63
2022-12-13T18:31:31.242Z,13.67
2022-12-13T18:33:59.667Z,14.23
2022-12-13T18:36:27.824Z,14.03
2022-12-13T18:38:56.919Z,16.67
2022-12-13T18:41:28.018Z,11.77
2022-12-13T18:43:59.561Z,11.90
2022-12-13T18:46:28.295Z,13.83
2022-12-13T18:48:57.962Z,12.73
2022-12-13T18:51:26.626Z,10.87
2022-12-13T18:53:56.417Z,12.50
2022-12-13T18:56:25.720Z,12.60
2022-12-13T18:58:54.090Z,14.37
2022-12-13T19:01:22.819Z,13.00
2022-12-13T19:03:51.124Z,9.60
2022-12-13T19:06:22.056Z,12.30
2022-12-13T19:08:51.724Z,14.10
2022-12-13T19:11:20.160Z,14.57
2022-12-13T19:13:48.273Z,14.10
2022-12-13T19:16:18.112Z,13.93
2022-12-13T19:18:46.107Z,12.63
2022-12-13T19:21:16.617Z,13.30
2022-12-13T19:23:51.314Z,11.60
2022-12-13T19:26:23.864Z,13.77
2022-12-13T19:28:52.082Z,12.60
2022-12-13T19:31:19.779Z,12.10
2022-12-13T19:33:48.043Z,12.83
2022-12-13T19:36:16.392Z,12.97
2022-12-13T19:38:45.731Z,12.27
2022-12-13T19:41:15.080Z,11.57
2022-12-13T19:43:50.678Z,13.77
2022-12-13T19:46:20.786Z,15.77
2022-12-13T19:48:48.675Z,14.97
2022-12-13T19:51:16.390Z,13.43
2022-12-13T19:53:45.749Z,15.13
2022-12-13T19:56:15.983Z,12.37
2022-12-13T19:58:43.735Z,14.90
2022-12-13T20:01:12.140Z,15.27
2022-12-13T20:03:42.109Z,13.63
2022-12-13T20:06:14.635Z,14.83
2022-12-13T20:08:42.441Z,12.27
2022-12-13T20:11:14.244Z,14.23
2022-12-13T20:13:42.480Z,11.97
2022-12-13T20:16:16.664Z,13.57
2022-12-13T20:18:44.740Z,13.70
2022-12-13T20:21:14.583Z,14.77
2022-12-13T20:23:44.901Z,14.27
2022-12-13T20:26:21.053Z,13.53
2022-12-13T20:28:49.731Z,13.40
2022-12-13T20:31:19.181Z,13.77
2022-12-13T20:33:48.056Z,12.07
2022-12-13T20:36:25.885Z,12.80
2022-12-13T20:38:56.423Z,13.43
2022-12-13T20:41:26.972Z,13.03
2022-12-13T20:43:56.976Z,13.70
2022-12-13T20:46:25.932Z,12.80
2022-12-13T20:48:55.140Z,14.97
2022-12-13T20:51:25.497Z,13.60
2022-12-13T20:53:54.064Z,12.17
2022-12-13T20:56:23.546Z,16.40
2022-12-13T20:58:52.970Z,13.13
2022-12-13T21:01:22.022Z,11.97
2022-12-13T21:03:50.438Z,12.97
2022-12-13T21:06:18.206Z,14.10
2022-12-13T21:08:52.060Z,11.67
2022-12-13T21:11:27.050Z,13.23
2022-12-13T21:14:02.455Z,14.63
2022-12-13T21:16:37.998Z,13.30
2022-12-13T21:19:06.802Z,13.63
2022-12-13T21:21:34.754Z,13.53
2022-12-13T21:24:03.232Z,13.10
2022-12-13T21:26:35.661Z,11.93
2022-12-13T21:29:07.401Z,14.57
2022-12-13T21:31:37.067Z,14.70
2022-12-13T21:34:06.832Z,11.93
2022-12-13T21:36:36.581Z,14.80
2022-12-13T21:39:06.631Z,11.50
2022-12-13T21:41:34.545Z,14.07
2022-12-13T21:44:02.184Z,13.10
2022-12-13T21:47:11.436Z,13.57
2022-12-13T21:49:20.722Z,14.43
2022-12-13T21:51:48.799Z,12.20
2022-12-13T21:54:18.371Z,13.13
2022-12-13T21:57:03.796Z,12.97
2022-12-13T21:59:31.770Z,11.33
2022-12-13T22:02:15.980Z,12.47
2022-12-13T22:04:46.258Z,12.67
2022-12-13T22:07:16.092Z,12.27
2022-12-13T22:09:45.057Z,11.47
2022-12-13T22:12:20.159Z,11.80
2022-12-13T22:14:48.156Z,12.37
2022-12-13T22:17:18.434Z,13.60
2022-12-13T22:19:48.486Z,14.33
2022-12-13T22:22:17.211Z,12.53
2022-12-13T22:24:49.876Z,12.03
2022-12-13T22:27:23.507Z,11.40
2022-12-13T22:29:52.024Z,13.10
2022-12-13T22:32:21.250Z,13.17
2022-12-13T22:34:49.473Z,12.13
2022-12-13T22:37:17.845Z,10.57
2022-12-13T22:39:45.591Z,12.07
2022-12-13T22:42:13.781Z,11.77
2022-12-13T22:44:41.430Z,12.00
2022-12-13T22:47:09.443Z,12.33
2022-12-13T22:49:39.928Z,12.70
2022-12-13T22:52:08.472Z,12.90
2022-12-13T22:54:36.165Z,9.87
2022-12-13T22:57:04.263Z,12.97
2022-12-13T22:59:32.903Z,13.50
2022-12-13T23:02:02.983Z,11.27
2022-12-13T23:04:33.237Z,12.27
2022-12-13T23:07:02.585Z,10.53
2022-12-13T23:09:31.359Z,12.43
2022-12-13T23:12:17.037Z,10.73
2022-12-13T23:14:44.821Z,11.97
2022-12-13T23:17:13.351Z,12.63
2022-12-13T23:19:51.567Z,12.67
2022-12-13T23:22:26.186Z,10.50
2022-12-13T23:24:54.243Z,11.13
2022-12-13T23:27:24.168Z,9.70
2022-12-13T23:29:51.921Z,11.23
2022-12-13T23:32:20.432Z,12.00
2022-12-13T23:34:48.100Z,10.23
2022-12-13T23:37:16.340Z,11.07
2022-12-13T23:39:45.333Z,12.20
2022-12-13T23:42:13.308Z,13.10
2022-12-13T23:44:40.973Z,11.40
2022-12-13T23:47:08.859Z,10.53
2022-12-13T23:49:36.510Z,9.87
2022-12-13T23:52:04.246Z,9.57
2022-12-13T23:54:31.896Z,10.47
2022-12-13T23:57:01.629Z,10.07
2022-12-13T23:59:29.471Z,9.87
